sensor_id;sensor_type;location;lat;lon;timestamp;P1;durP1;ratioP1;P2;durP2;ratioP2
31680;SDS011;18281;51.364;9.566;2024-02-16T00:00:39;10.68;;;5.20;;
31680;SDS011;18281;51.364;9.566;2024-02-16T00:03:14;18.77;;;5.85;;
31680;SDS011;18281;51.364;9.566;2024-02-16T00:05:55;14.00;;;5.88;;
31680;SDS011;18281;51.364;9.566;2024-02-16T00:08:23;20.38;;;6.70;;
31680;SDS011;18281;51.364;9.566;2024-02-16T00:11:02;11.77;;;5.15;;
31680;SDS011;18281;51.364;9.566;2024-02-16T00:13:31;12.23;;;5.25;;
31680;SDS011;18281;51.364;9.566;2024-02-16T00:15:57;12.10;;;4.50;;
31680;SDS011;18281;51.364;9.566;2024-02-16T00:18:22;10.55;;;4.72;;
31680;SDS011;18281;51.364;9.566;2024-02-16T00:20:53;13.27;;;5.43;;
31680;SDS011;18281;51.364;9.566;2024-02-16T00:23:30;13.25;;;5.85;;
31680;SDS011;18281;51.364;9.566;2024-02-16T00:25:59;15.48;;;6.10;;
31680;SDS011;18281;51.364;9.566;2024-02-16T00:28:32;13.32;;;5.15;;
31680;SDS011;18281;51.364;9.566;2024-02-16T00:31:04;15.38;;;5.15;;
31680;SDS011;18281;51.364;9.566;2024-02-16T00:33:34;10.25;;;4.03;;
31680;SDS011;18281;51.364;9.566;2024-02-16T00:36:02;13.45;;;4.50;;
31680;SDS011;18281;51.364;9.566;2024-02-16T00:38:28;9.80;;;3.63;;
31680;SDS011;18281;51.364;9.566;2024-02-16T00:40:56;10.00;;;3.45;;
31680;SDS011;18281;51.364;9.566;2024-02-16T00:43:25;6.78;;;3.20;;
31680;SDS011;18281;51.364;9.566;2024-02-16T00:45:53;9.90;;;3.72;;
31680;SDS011;18281;51.364;9.566;2024-02-16T00:48:20;5.60;;;2.55;;
31680;SDS011;18281;51.364;9.566;2024-02-16T00:50:59;4.68;;;2.60;;
31680;SDS011;18281;51.364;9.566;2024-02-16T00:53:33;4.85;;;2.65;;
31680;SDS011;18281;51.364;9.566;2024-02-16T00:56:01;8.55;;;3.47;;
31680;SDS011;18281;51.364;9.566;2024-02-16T00:58:27;8.18;;;3.47;;
31680;SDS011;18281;51.364;9.566;2024-02-16T01:00:55;10.88;;;4.15;;
31680;SDS011;18281;51.364;9.566;2024-02-16T01:03:21;11.55;;;4.20;;
31680;SDS011;18281;51.364;9.566;2024-02-16T01:05:52;8.57;;;3.30;;
31680;SDS011;18281;51.364;9.566;2024-02-16T01:08:18;9.38;;;3.58;;
31680;SDS011;18281;51.364;9.566;2024-02-16T01:10:43;9.75;;;3.75;;
31680;SDS011;18281;51.364;9.566;2024-02-16T01:13:09;6.93;;;3.20;;
31680;SDS011;18281;51.364;9.566;2024-02-16T01:15:35;5.60;;;2.90;;
31680;SDS011;18281;51.364;9.566;2024-02-16T01:18:04;4.95;;;2.80;;
31680;SDS011;18281;51.364;9.566;2024-02-16T01:20:30;10.27;;;2.83;;
31680;SDS011;18281;51.364;9.566;2024-02-16T01:22:56;8.30;;;3.13;;
31680;SDS011;18281;51.364;9.566;2024-02-16T01:25:22;9.60;;;2.70;;
31680;SDS011;18281;51.364;9.566;2024-02-16T01:27:48;6.38;;;2.58;;
31680;SDS011;18281;51.364;9.566;2024-02-16T01:30:13;8.65;;;2.35;;
31680;SDS011;18281;51.364;9.566;2024-02-16T01:32:40;5.07;;;2.22;;
31680;SDS011;18281;51.364;9.566;2024-02-16T01:35:09;3.97;;;2.33;;
31680;SDS011;18281;51.364;9.566;2024-02-16T01:40:15;4.45;;;2.33;;
31680;SDS011;18281;51.364;9.566;2024-02-16T01:42:43;4.93;;;2.20;;
31680;SDS011;18281;51.364;9.566;2024-02-16T01:45:12;5.90;;;1.88;;
31680;SDS011;18281;51.364;9.566;2024-02-16T01:47:44;3.60;;;2.13;;
31680;SDS011;18281;51.364;9.566;2024-02-16T01:50:15;5.75;;;2.17;;
31680;SDS011;18281;51.364;9.566;2024-02-16T01:52:54;3.17;;;2.15;;
31680;SDS011;18281;51.364;9.566;2024-02-16T01:55:23;6.53;;;2.10;;
31680;SDS011;18281;51.364;9.566;2024-02-16T01:57:49;3.85;;;2.00;;
31680;SDS011;18281;51.364;9.566;2024-02-16T02:00:14;4.57;;;1.88;;
31680;SDS011;18281;51.364;9.566;2024-02-16T02:02:43;5.20;;;2.17;;
31680;SDS011;18281;51.364;9.566;2024-02-16T02:05:14;7.15;;;2.50;;
31680;SDS011;18281;51.364;9.566;2024-02-16T02:07:40;9.63;;;1.85;;
31680;SDS011;18281;51.364;9.566;2024-02-16T02:13:25;5.60;;;1.70;;
31680;SDS011;18281;51.364;9.566;2024-02-16T02:16:02;3.38;;;1.98;;
31680;SDS011;18281;51.364;9.566;2024-02-16T02:18:47;7.13;;;1.67;;
31680;SDS011;18281;51.364;9.566;2024-02-16T02:21:12;4.00;;;1.75;;
31680;SDS011;18281;51.364;9.566;2024-02-16T02:23:42;8.23;;;2.30;;
31680;SDS011;18281;51.364;9.566;2024-02-16T02:26:14;6.78;;;2.65;;
31680;SDS011;18281;51.364;9.566;2024-02-16T02:28:41;5.22;;;2.47;;
31680;SDS011;18281;51.364;9.566;2024-02-16T02:31:13;6.63;;;2.28;;
31680;SDS011;18281;51.364;9.566;2024-02-16T02:33:44;5.88;;;2.65;;
31680;SDS011;18281;51.364;9.566;2024-02-16T02:36:13;7.97;;;2.78;;
31680;SDS011;18281;51.364;9.566;2024-02-16T02:38:41;6.20;;;2.80;;
31680;SDS011;18281;51.364;9.566;2024-02-16T02:41:12;5.05;;;3.05;;
31680;SDS011;18281;51.364;9.566;2024-02-16T02:43:46;6.07;;;2.35;;
31680;SDS011;18281;51.364;9.566;2024-02-16T02:46:17;11.93;;;2.40;;
31680;SDS011;18281;51.364;9.566;2024-02-16T02:48:49;7.47;;;2.85;;
31680;SDS011;18281;51.364;9.566;2024-02-16T02:51:16;14.30;;;3.55;;
31680;SDS011;18281;51.364;9.566;2024-02-16T02:53:44;9.38;;;2.70;;
31680;SDS011;18281;51.364;9.566;2024-02-16T02:56:13;14.75;;;2.35;;
31680;SDS011;18281;51.364;9.566;2024-02-16T02:58:43;5.30;;;2.63;;
31680;SDS011;18281;51.364;9.566;2024-02-16T03:01:14;6.32;;;2.45;;
31680;SDS011;18281;51.364;9.566;2024-02-16T03:03:44;5.57;;;2.55;;
31680;SDS011;18281;51.364;9.566;2024-02-16T03:06:12;5.57;;;2.25;;
31680;SDS011;18281;51.364;9.566;2024-02-16T03:08:42;4.28;;;2.33;;
31680;SDS011;18281;51.364;9.566;2024-02-16T03:11:11;6.32;;;2.50;;
31680;SDS011;18281;51.364;9.566;2024-02-16T03:13:42;5.00;;;2.03;;
31680;SDS011;18281;51.364;9.566;2024-02-16T03:16:08;4.25;;;2.65;;
31680;SDS011;18281;51.364;9.566;2024-02-16T03:18:36;3.58;;;2.10;;
31680;SDS011;18281;51.364;9.566;2024-02-16T03:21:01;5.57;;;2.30;;
31680;SDS011;18281;51.364;9.566;2024-02-16T03:23:30;7.43;;;2.20;;
31680;SDS011;18281;51.364;9.566;2024-02-16T03:25:58;6.10;;;2.42;;
31680;SDS011;18281;51.364;9.566;2024-02-16T03:28:29;8.57;;;2.97;;
31680;SDS011;18281;51.364;9.566;2024-02-16T03:31:00;5.55;;;2.45;;
31680;SDS011;18281;51.364;9.566;2024-02-16T03:33:30;4.45;;;2.30;;
31680;SDS011;18281;51.364;9.566;2024-02-16T03:35:56;5.93;;;2.03;;
31680;SDS011;18281;51.364;9.566;2024-02-16T03:38:24;7.63;;;2.17;;
31680;SDS011;18281;51.364;9.566;2024-02-16T03:40:53;8.25;;;2.47;;
31680;SDS011;18281;51.364;9.566;2024-02-16T03:43:21;8.52;;;2.40;;
31680;SDS011;18281;51.364;9.566;2024-02-16T03:45:49;7.85;;;2.47;;
31680;SDS011;18281;51.364;9.566;2024-02-16T03:48:19;6.78;;;2.35;;
31680;SDS011;18281;51.364;9.566;2024-02-16T03:50:45;5.60;;;2.10;;
31680;SDS011;18281;51.364;9.566;2024-02-16T03:53:13;7.50;;;2.40;;
31680;SDS011;18281;51.364;9.566;2024-02-16T03:55:39;5.47;;;2.30;;
31680;SDS011;18281;51.364;9.566;2024-02-16T03:58:04;8.65;;;2.08;;
31680;SDS011;18281;51.364;9.566;2024-02-16T04:00:40;10.98;;;2.03;;
31680;SDS011;18281;51.364;9.566;2024-02-16T04:03:06;3.83;;;1.85;;
31680;SDS011;18281;51.364;9.566;2024-02-16T04:05:35;5.45;;;2.05;;
31680;SDS011;18281;51.364;9.566;2024-02-16T04:08:05;4.80;;;2.40;;
31680;SDS011;18281;51.364;9.566;2024-02-16T04:10:31;3.92;;;1.95;;
31680;SDS011;18281;51.364;9.566;2024-02-16T04:13:10;7.35;;;1.95;;
31680;SDS011;18281;51.364;9.566;2024-02-16T04:15:36;6.63;;;1.88;;
31680;SDS011;18281;51.364;9.566;2024-02-16T04:18:05;5.85;;;2.00;;
31680;SDS011;18281;51.364;9.566;2024-02-16T04:20:34;2.03;;;1.70;;
31680;SDS011;18281;51.364;9.566;2024-02-16T04:23:03;4.40;;;2.40;;
31680;SDS011;18281;51.364;9.566;2024-02-16T04:25:28;5.40;;;2.25;;
31680;SDS011;18281;51.364;9.566;2024-02-16T04:27:56;5.47;;;2.08;;
31680;SDS011;18281;51.364;9.566;2024-02-16T04:30:27;6.38;;;2.05;;
31680;SDS011;18281;51.364;9.566;2024-02-16T04:32:53;4.63;;;2.10;;
31680;SDS011;18281;51.364;9.566;2024-02-16T04:35:21;7.10;;;1.83;;
31680;SDS011;18281;51.364;9.566;2024-02-16T04:37:51;6.60;;;1.98;;
31680;SDS011;18281;51.364;9.566;2024-02-16T04:40:20;4.80;;;1.70;;
31680;SDS011;18281;51.364;9.566;2024-02-16T04:42:46;3.78;;;1.65;;
31680;SDS011;18281;51.364;9.566;2024-02-16T04:45:16;3.80;;;1.70;;
31680;SDS011;18281;51.364;9.566;2024-02-16T04:47:45;6.38;;;1.50;;
31680;SDS011;18281;51.364;9.566;2024-02-16T04:50:13;3.88;;;1.63;;
31680;SDS011;18281;51.364;9.566;2024-02-16T04:52:40;2.83;;;1.60;;
31680;SDS011;18281;51.364;9.566;2024-02-16T04:55:06;2.42;;;1.73;;
31680;SDS011;18281;51.364;9.566;2024-02-16T04:57:37;8.95;;;2.03;;
31680;SDS011;18281;51.364;9.566;2024-02-16T05:00:06;6.10;;;1.73;;
31680;SDS011;18281;51.364;9.566;2024-02-16T05:02:34;4.25;;;1.73;;
31680;SDS011;18281;51.364;9.566;2024-02-16T05:05:00;3.58;;;2.10;;
31680;SDS011;18281;51.364;9.566;2024-02-16T05:07:28;5.07;;;1.77;;
31680;SDS011;18281;51.364;9.566;2024-02-16T05:09:56;2.88;;;1.70;;
31680;SDS011;18281;51.364;9.566;2024-02-16T05:12:23;7.65;;;1.85;;
31680;SDS011;18281;51.364;9.566;2024-02-16T05:14:51;7.30;;;2.10;;
31680;SDS011;18281;51.364;9.566;2024-02-16T05:17:22;4.55;;;2.13;;
31680;SDS011;18281;51.364;9.566;2024-02-16T05:19:48;2.80;;;1.98;;
31680;SDS011;18281;51.364;9.566;2024-02-16T05:22:16;6.20;;;2.05;;
31680;SDS011;18281;51.364;9.566;2024-02-16T05:24:46;6.43;;;2.20;;
31680;SDS011;18281;51.364;9.566;2024-02-16T05:27:12;5.45;;;2.03;;
31680;SDS011;18281;51.364;9.566;2024-02-16T05:29:44;7.63;;;2.05;;
31680;SDS011;18281;51.364;9.566;2024-02-16T05:32:10;2.13;;;1.55;;
31680;SDS011;18281;51.364;9.566;2024-02-16T05:34:38;6.40;;;1.77;;
31680;SDS011;18281;51.364;9.566;2024-02-16T05:37:04;2.75;;;2.03;;
31680;SDS011;18281;51.364;9.566;2024-02-16T05:39:35;4.88;;;1.92;;
31680;SDS011;18281;51.364;9.566;2024-02-16T05:42:18;4.78;;;2.47;;
31680;SDS011;18281;51.364;9.566;2024-02-16T05:44:53;7.47;;;2.35;;
31680;SDS011;18281;51.364;9.566;2024-02-16T05:47:20;4.38;;;2.28;;
31680;SDS011;18281;51.364;9.566;2024-02-16T05:49:48;3.83;;;2.05;;
31680;SDS011;18281;51.364;9.566;2024-02-16T05:52:14;3.03;;;2.03;;
31680;SDS011;18281;51.364;9.566;2024-02-16T05:54:45;7.65;;;2.72;;
31680;SDS011;18281;51.364;9.566;2024-02-16T05:57:21;5.68;;;2.03;;
31680;SDS011;18281;51.364;9.566;2024-02-16T05:59:54;3.08;;;1.63;;
31680;SDS011;18281;51.364;9.566;2024-02-16T06:02:22;6.22;;;2.30;;
31680;SDS011;18281;51.364;9.566;2024-02-16T06:04:50;11.93;;;2.60;;
31680;SDS011;18281;51.364;9.566;2024-02-16T06:07:16;9.57;;;3.20;;
31680;SDS011;18281;51.364;9.566;2024-02-16T06:09:44;9.90;;;3.20;;
31680;SDS011;18281;51.364;9.566;2024-02-16T06:12:09;6.30;;;3.17;;
31680;SDS011;18281;51.364;9.566;2024-02-16T06:14:36;8.55;;;4.00;;
31680;SDS011;18281;51.364;9.566;2024-02-16T06:17:02;5.57;;;3.65;;
31680;SDS011;18281;51.364;9.566;2024-02-16T06:19:27;6.35;;;3.00;;
31680;SDS011;18281;51.364;9.566;2024-02-16T06:22:05;4.85;;;3.17;;
31680;SDS011;18281;51.364;9.566;2024-02-16T06:24:35;9.07;;;4.05;;
31680;SDS011;18281;51.364;9.566;2024-02-16T06:27:02;7.60;;;3.35;;
31680;SDS011;18281;51.364;9.566;2024-02-16T06:29:30;6.78;;;3.78;;
31680;SDS011;18281;51.364;9.566;2024-02-16T06:32:04;6.60;;;3.65;;
31680;SDS011;18281;51.364;9.566;2024-02-16T06:34:37;10.13;;;3.40;;
31680;SDS011;18281;51.364;9.566;2024-02-16T06:37:05;8.35;;;3.92;;
31680;SDS011;18281;51.364;9.566;2024-02-16T06:39:33;5.78;;;3.80;;
31680;SDS011;18281;51.364;9.566;2024-02-16T06:42:02;9.40;;;3.83;;
31680;SDS011;18281;51.364;9.566;2024-02-16T06:44:28;5.78;;;3.53;;
31680;SDS011;18281;51.364;9.566;2024-02-16T06:46:55;6.15;;;3.22;;
31680;SDS011;18281;51.364;9.566;2024-02-16T06:49:21;7.47;;;3.25;;
31680;SDS011;18281;51.364;9.566;2024-02-16T06:51:54;5.75;;;2.80;;
31680;SDS011;18281;51.364;9.566;2024-02-16T06:54:23;4.43;;;2.70;;
31680;SDS011;18281;51.364;9.566;2024-02-16T06:56:56;7.78;;;2.90;;
31680;SDS011;18281;51.364;9.566;2024-02-16T07:02:53;6.90;;;2.78;;
31680;SDS011;18281;51.364;9.566;2024-02-16T07:05:21;9.07;;;2.60;;
31680;SDS011;18281;51.364;9.566;2024-02-16T07:07:54;7.97;;;2.55;;
31680;SDS011;18281;51.364;9.566;2024-02-16T07:10:25;4.10;;;2.40;;
31680;SDS011;18281;51.364;9.566;2024-02-16T07:12:52;5.57;;;2.03;;
31680;SDS011;18281;51.364;9.566;2024-02-16T07:15:34;4.00;;;2.25;;
31680;SDS011;18281;51.364;9.566;2024-02-16T07:17:59;4.68;;;2.47;;
31680;SDS011;18281;51.364;9.566;2024-02-16T07:20:29;5.13;;;2.55;;
31680;SDS011;18281;51.364;9.566;2024-02-16T07:22:54;5.40;;;2.75;;
31680;SDS011;18281;51.364;9.566;2024-02-16T07:25:20;4.18;;;2.22;;
31680;SDS011;18281;51.364;9.566;2024-02-16T07:27:48;5.50;;;2.42;;
31680;SDS011;18281;51.364;9.566;2024-02-16T07:30:14;5.93;;;3.28;;
31680;SDS011;18281;51.364;9.566;2024-02-16T07:32:50;7.30;;;3.90;;
31680;SDS011;18281;51.364;9.566;2024-02-16T07:35:19;6.75;;;4.00;;
31680;SDS011;18281;51.364;9.566;2024-02-16T07:37:49;8.52;;;4.10;;
31680;SDS011;18281;51.364;9.566;2024-02-16T07:40:17;5.63;;;3.42;;
31680;SDS011;18281;51.364;9.566;2024-02-16T07:42:45;8.00;;;3.80;;
31680;SDS011;18281;51.364;9.566;2024-02-16T07:45:13;4.25;;;2.95;;
31680;SDS011;18281;51.364;9.566;2024-02-16T07:47:45;6.05;;;3.50;;
31680;SDS011;18281;51.364;9.566;2024-02-16T07:50:18;6.03;;;3.00;;
31680;SDS011;18281;51.364;9.566;2024-02-16T07:53:03;7.07;;;2.72;;
31680;SDS011;18281;51.364;9.566;2024-02-16T07:55:29;5.80;;;3.30;;
31680;SDS011;18281;51.364;9.566;2024-02-16T07:57:58;7.53;;;3.65;;
31680;SDS011;18281;51.364;9.566;2024-02-16T08:00:29;7.70;;;3.92;;
31680;SDS011;18281;51.364;9.566;2024-02-16T08:03:16;8.15;;;3.40;;
31680;SDS011;18281;51.364;9.566;2024-02-16T08:05:47;10.48;;;3.65;;
31680;SDS011;18281;51.364;9.566;2024-02-16T08:08:18;7.28;;;4.15;;
31680;SDS011;18281;51.364;9.566;2024-02-16T08:10:48;8.48;;;4.55;;
31680;SDS011;18281;51.364;9.566;2024-02-16T08:13:13;7.20;;;4.20;;
31680;SDS011;18281;51.364;9.566;2024-02-16T08:15:42;7.97;;;4.63;;
31680;SDS011;18281;51.364;9.566;2024-02-16T08:18:28;9.13;;;4.97;;
31680;SDS011;18281;51.364;9.566;2024-02-16T08:24:00;13.13;;;6.47;;
31680;SDS011;18281;51.364;9.566;2024-02-16T08:26:28;11.43;;;6.13;;
31680;SDS011;18281;51.364;9.566;2024-02-16T08:28:59;13.43;;;6.75;;
31680;SDS011;18281;51.364;9.566;2024-02-16T08:31:24;14.82;;;8.13;;
31680;SDS011;18281;51.364;9.566;2024-02-16T08:33:50;16.55;;;8.27;;
31680;SDS011;18281;51.364;9.566;2024-02-16T08:36:15;18.92;;;7.88;;
31680;SDS011;18281;51.364;9.566;2024-02-16T08:38:41;21.80;;;10.80;;
31680;SDS011;18281;51.364;9.566;2024-02-16T08:41:06;19.40;;;8.38;;
31680;SDS011;18281;51.364;9.566;2024-02-16T08:43:32;19.98;;;9.45;;
31680;SDS011;18281;51.364;9.566;2024-02-16T08:45:57;16.92;;;8.98;;
31680;SDS011;18281;51.364;9.566;2024-02-16T08:48:24;21.27;;;10.07;;
31680;SDS011;18281;51.364;9.566;2024-02-16T08:50:49;24.55;;;10.75;;
31680;SDS011;18281;51.364;9.566;2024-02-16T08:53:15;24.88;;;12.00;;
31680;SDS011;18281;51.364;9.566;2024-02-16T08:55:42;33.38;;;14.13;;
31680;SDS011;18281;51.364;9.566;2024-02-16T08:58:07;31.83;;;13.15;;
31680;SDS011;18281;51.364;9.566;2024-02-16T09:00:33;27.17;;;12.88;;
31680;SDS011;18281;51.364;9.566;2024-02-16T09:02:59;27.85;;;12.25;;
31680;SDS011;18281;51.364;9.566;2024-02-16T09:05:27;18.95;;;9.77;;
31680;SDS011;18281;51.364;9.566;2024-02-16T09:07:52;17.10;;;8.80;;
31680;SDS011;18281;51.364;9.566;2024-02-16T09:10:18;11.35;;;6.00;;
31680;SDS011;18281;51.364;9.566;2024-02-16T09:12:43;15.70;;;6.95;;
31680;SDS011;18281;51.364;9.566;2024-02-16T09:15:09;12.88;;;6.53;;
31680;SDS011;18281;51.364;9.566;2024-02-16T09:17:35;13.45;;;7.45;;
31680;SDS011;18281;51.364;9.566;2024-02-16T09:20:00;14.57;;;8.65;;
31680;SDS011;18281;51.364;9.566;2024-02-16T09:22:26;10.57;;;6.47;;
31680;SDS011;18281;51.364;9.566;2024-02-16T09:24:51;11.40;;;6.22;;
31680;SDS011;18281;51.364;9.566;2024-02-16T09:27:17;9.90;;;4.25;;
31680;SDS011;18281;51.364;9.566;2024-02-16T09:29:44;5.20;;;3.03;;
31680;SDS011;18281;51.364;9.566;2024-02-16T09:32:09;8.13;;;3.30;;
31680;SDS011;18281;51.364;9.566;2024-02-16T09:34:35;3.67;;;2.28;;
31680;SDS011;18281;51.364;9.566;2024-02-16T09:37:00;5.03;;;2.50;;
31680;SDS011;18281;51.364;9.566;2024-02-16T09:39:26;3.75;;;2.28;;
31680;SDS011;18281;51.364;9.566;2024-02-16T09:41:53;3.47;;;2.03;;
31680;SDS011;18281;51.364;9.566;2024-02-16T09:44:21;6.13;;;2.20;;
31680;SDS011;18281;51.364;9.566;2024-02-16T09:46:47;2.95;;;1.63;;
31680;SDS011;18281;51.364;9.566;2024-02-16T09:49:12;4.97;;;2.70;;
31680;SDS011;18281;51.364;9.566;2024-02-16T09:51:38;4.28;;;2.20;;
31680;SDS011;18281;51.364;9.566;2024-02-16T09:54:03;3.85;;;2.08;;
31680;SDS011;18281;51.364;9.566;2024-02-16T09:56:29;4.00;;;2.08;;
31680;SDS011;18281;51.364;9.566;2024-02-16T09:58:55;3.45;;;2.17;;
31680;SDS011;18281;51.364;9.566;2024-02-16T10:01:23;3.80;;;2.10;;
31680;SDS011;18281;51.364;9.566;2024-02-16T10:03:49;5.40;;;1.92;;
31680;SDS011;18281;51.364;9.566;2024-02-16T10:06:15;4.82;;;2.13;;
31680;SDS011;18281;51.364;9.566;2024-02-16T10:08:51;3.30;;;1.73;;
31680;SDS011;18281;51.364;9.566;2024-02-16T10:11:19;8.10;;;1.98;;
31680;SDS011;18281;51.364;9.566;2024-02-16T10:14:02;3.03;;;2.00;;
31680;SDS011;18281;51.364;9.566;2024-02-16T10:19:28;3.25;;;1.80;;
31680;SDS011;18281;51.364;9.566;2024-02-16T10:22:13;4.35;;;1.88;;
31680;SDS011;18281;51.364;9.566;2024-02-16T10:24:41;3.63;;;1.77;;
31680;SDS011;18281;51.364;9.566;2024-02-16T10:27:16;3.20;;;1.63;;
31680;SDS011;18281;51.364;9.566;2024-02-16T10:29:46;3.42;;;1.67;;
31680;SDS011;18281;51.364;9.566;2024-02-16T10:32:23;3.35;;;1.70;;
31680;SDS011;18281;51.364;9.566;2024-02-16T10:34:59;4.97;;;1.52;;
31680;SDS011;18281;51.364;9.566;2024-02-16T10:37:30;3.88;;;1.65;;
31680;SDS011;18281;51.364;9.566;2024-02-16T10:39:59;2.75;;;1.70;;
31680;SDS011;18281;51.364;9.566;2024-02-16T10:42:28;2.33;;;1.50;;
31680;SDS011;18281;51.364;9.566;2024-02-16T10:44:56;4.45;;;1.67;;
31680;SDS011;18281;51.364;9.566;2024-02-16T10:47:25;7.57;;;1.60;;
31680;SDS011;18281;51.364;9.566;2024-02-16T10:49:53;2.92;;;1.80;;
31680;SDS011;18281;51.364;9.566;2024-02-16T10:52:34;4.13;;;1.60;;
31680;SDS011;18281;51.364;9.566;2024-02-16T10:55:04;2.50;;;1.85;;
31680;SDS011;18281;51.364;9.566;2024-02-16T10:57:35;3.83;;;1.52;;
31680;SDS011;18281;51.364;9.566;2024-02-16T11:00:10;3.28;;;2.17;;
31680;SDS011;18281;51.364;9.566;2024-02-16T11:05:43;5.33;;;1.77;;
31680;SDS011;18281;51.364;9.566;2024-02-16T11:08:14;4.38;;;1.60;;
31680;SDS011;18281;51.364;9.566;2024-02-16T11:11:02;5.03;;;1.98;;
31680;SDS011;18281;51.364;9.566;2024-02-16T11:13:31;5.55;;;1.77;;
31680;SDS011;18281;51.364;9.566;2024-02-16T11:16:07;4.40;;;2.13;;
31680;SDS011;18281;51.364;9.566;2024-02-16T11:18:39;5.70;;;1.75;;
31680;SDS011;18281;51.364;9.566;2024-02-16T11:21:14;3.58;;;1.80;;
31680;SDS011;18281;51.364;9.566;2024-02-16T11:23:45;3.25;;;1.65;;
31680;SDS011;18281;51.364;9.566;2024-02-16T11:26:13;3.08;;;1.60;;
31680;SDS011;18281;51.364;9.566;2024-02-16T11:28:42;2.75;;;1.77;;
31680;SDS011;18281;51.364;9.566;2024-02-16T11:31:08;2.23;;;1.63;;
31680;SDS011;18281;51.364;9.566;2024-02-16T11:33:34;2.35;;;1.50;;
31680;SDS011;18281;51.364;9.566;2024-02-16T11:36:03;4.47;;;2.05;;
31680;SDS011;18281;51.364;9.566;2024-02-16T11:38:30;2.97;;;1.60;;
31680;SDS011;18281;51.364;9.566;2024-02-16T11:41:03;2.53;;;1.58;;
31680;SDS011;18281;51.364;9.566;2024-02-16T11:43:31;3.58;;;1.80;;
31680;SDS011;18281;51.364;9.566;2024-02-16T11:45:57;3.67;;;1.70;;
31680;SDS011;18281;51.364;9.566;2024-02-16T11:48:26;3.15;;;1.58;;
31680;SDS011;18281;51.364;9.566;2024-02-16T11:51:00;3.13;;;1.52;;
31680;SDS011;18281;51.364;9.566;2024-02-16T11:53:28;4.18;;;1.63;;
31680;SDS011;18281;51.364;9.566;2024-02-16T11:55:54;4.13;;;1.50;;
31680;SDS011;18281;51.364;9.566;2024-02-16T11:58:20;3.38;;;1.50;;
31680;SDS011;18281;51.364;9.566;2024-02-16T12:00:49;4.32;;;1.83;;
31680;SDS011;18281;51.364;9.566;2024-02-16T12:03:19;3.33;;;1.80;;
31680;SDS011;18281;51.364;9.566;2024-02-16T12:05:52;4.05;;;1.90;;
31680;SDS011;18281;51.364;9.566;2024-02-16T12:08:18;3.20;;;1.80;;
31680;SDS011;18281;51.364;9.566;2024-02-16T12:10:48;5.25;;;1.80;;
31680;SDS011;18281;51.364;9.566;2024-02-16T12:13:18;2.92;;;1.80;;
31680;SDS011;18281;51.364;9.566;2024-02-16T12:15:48;3.13;;;1.80;;
31680;SDS011;18281;51.364;9.566;2024-02-16T12:18:21;2.97;;;1.90;;
31680;SDS011;18281;51.364;9.566;2024-02-16T12:20:58;4.40;;;1.58;;
31680;SDS011;18281;51.364;9.566;2024-02-16T12:23:25;9.25;;;2.25;;
31680;SDS011;18281;51.364;9.566;2024-02-16T12:25:50;29.15;;;3.15;;
31680;SDS011;18281;51.364;9.566;2024-02-16T12:28:16;4.85;;;1.90;;
31680;SDS011;18281;51.364;9.566;2024-02-16T12:30:41;5.18;;;1.90;;
31680;SDS011;18281;51.364;9.566;2024-02-16T12:33:07;8.68;;;1.83;;
31680;SDS011;18281;51.364;9.566;2024-02-16T12:35:32;4.65;;;1.77;;
31680;SDS011;18281;51.364;9.566;2024-02-16T12:37:59;7.13;;;1.98;;
31680;SDS011;18281;51.364;9.566;2024-02-16T12:40:24;3.42;;;1.50;;
31680;SDS011;18281;51.364;9.566;2024-02-16T12:42:50;3.15;;;1.88;;
31680;SDS011;18281;51.364;9.566;2024-02-16T12:45:15;4.13;;;2.25;;
31680;SDS011;18281;51.364;9.566;2024-02-16T12:47:41;4.50;;;2.35;;
31680;SDS011;18281;51.364;9.566;2024-02-16T12:50:10;3.88;;;1.52;;
31680;SDS011;18281;51.364;9.566;2024-02-16T12:52:35;4.55;;;1.85;;
31680;SDS011;18281;51.364;9.566;2024-02-16T12:55:03;5.28;;;1.77;;
31680;SDS011;18281;51.364;9.566;2024-02-16T12:57:30;4.70;;;1.60;;
31680;SDS011;18281;51.364;9.566;2024-02-16T12:59:56;4.18;;;1.90;;
31680;SDS011;18281;51.364;9.566;2024-02-16T13:02:21;2.78;;;1.73;;
31680;SDS011;18281;51.364;9.566;2024-02-16T13:04:47;5.25;;;2.00;;
31680;SDS011;18281;51.364;9.566;2024-02-16T13:07:12;8.25;;;2.15;;
31680;SDS011;18281;51.364;9.566;2024-02-16T13:09:38;7.15;;;2.05;;
31680;SDS011;18281;51.364;9.566;2024-02-16T13:12:03;4.95;;;1.95;;
31680;SDS011;18281;51.364;9.566;2024-02-16T13:14:29;3.33;;;1.98;;
31680;SDS011;18281;51.364;9.566;2024-02-16T13:16:57;4.07;;;2.05;;
31680;SDS011;18281;51.364;9.566;2024-02-16T13:19:22;6.43;;;2.00;;
31680;SDS011;18281;51.364;9.566;2024-02-16T13:21:51;4.03;;;2.15;;
31680;SDS011;18281;51.364;9.566;2024-02-16T13:24:20;5.00;;;2.35;;
31680;SDS011;18281;51.364;9.566;2024-02-16T13:26:45;7.22;;;1.95;;
31680;SDS011;18281;51.364;9.566;2024-02-16T13:29:10;4.88;;;2.08;;
31680;SDS011;18281;51.364;9.566;2024-02-16T13:31:36;4.10;;;2.22;;
31680;SDS011;18281;51.364;9.566;2024-02-16T13:34:02;4.57;;;2.35;;
31680;SDS011;18281;51.364;9.566;2024-02-16T13:36:27;4.85;;;2.13;;
31680;SDS011;18281;51.364;9.566;2024-02-16T13:38:52;4.45;;;2.58;;
31680;SDS011;18281;51.364;9.566;2024-02-16T13:41:18;5.40;;;2.88;;
31680;SDS011;18281;51.364;9.566;2024-02-16T13:43:44;6.60;;;2.67;;
31680;SDS011;18281;51.364;9.566;2024-02-16T13:46:10;3.83;;;2.40;;
31680;SDS011;18281;51.364;9.566;2024-02-16T13:48:35;9.27;;;3.05;;
31680;SDS011;18281;51.364;9.566;2024-02-16T13:51:02;6.05;;;2.80;;
31680;SDS011;18281;51.364;9.566;2024-02-16T13:55:57;6.03;;;2.17;;
31680;SDS011;18281;51.364;9.566;2024-02-16T13:58:25;4.68;;;1.83;;
31680;SDS011;18281;51.364;9.566;2024-02-16T14:00:51;6.47;;;2.85;;
31680;SDS011;18281;51.364;9.566;2024-02-16T14:03:17;6.93;;;2.50;;
31680;SDS011;18281;51.364;9.566;2024-02-16T14:05:44;6.30;;;2.50;;
31680;SDS011;18281;51.364;9.566;2024-02-16T14:08:10;4.95;;;2.08;;
31680;SDS011;18281;51.364;9.566;2024-02-16T14:10:37;4.88;;;2.10;;
31680;SDS011;18281;51.364;9.566;2024-02-16T14:13:03;10.10;;;3.22;;
31680;SDS011;18281;51.364;9.566;2024-02-16T14:15:31;7.25;;;2.35;;
31680;SDS011;18281;51.364;9.566;2024-02-16T14:17:59;4.88;;;2.45;;
31680;SDS011;18281;51.364;9.566;2024-02-16T14:20:25;4.15;;;1.92;;
31680;SDS011;18281;51.364;9.566;2024-02-16T14:22:53;3.88;;;2.13;;
31680;SDS011;18281;51.364;9.566;2024-02-16T14:25:19;4.82;;;2.35;;
31680;SDS011;18281;51.364;9.566;2024-02-16T14:27:44;4.00;;;2.33;;
31680;SDS011;18281;51.364;9.566;2024-02-16T14:30:10;8.20;;;2.28;;
31680;SDS011;18281;51.364;9.566;2024-02-16T14:32:37;5.10;;;2.47;;
31680;SDS011;18281;51.364;9.566;2024-02-16T14:35:03;7.82;;;2.38;;
31680;SDS011;18281;51.364;9.566;2024-02-16T14:37:30;5.63;;;2.30;;
31680;SDS011;18281;51.364;9.566;2024-02-16T14:39:55;9.27;;;2.75;;
31680;SDS011;18281;51.364;9.566;2024-02-16T14:42:26;2.63;;;1.85;;
31680;SDS011;18281;51.364;9.566;2024-02-16T14:44:53;6.68;;;2.25;;
31680;SDS011;18281;51.364;9.566;2024-02-16T14:47:19;4.38;;;2.30;;
31680;SDS011;18281;51.364;9.566;2024-02-16T14:49:44;5.60;;;2.40;;
31680;SDS011;18281;51.364;9.566;2024-02-16T14:52:09;4.90;;;2.22;;
31680;SDS011;18281;51.364;9.566;2024-02-16T14:54:35;8.55;;;2.58;;
31680;SDS011;18281;51.364;9.566;2024-02-16T14:57:01;10.80;;;2.40;;
31680;SDS011;18281;51.364;9.566;2024-02-16T14:59:28;4.22;;;1.98;;
31680;SDS011;18281;51.364;9.566;2024-02-16T15:01:55;6.32;;;2.50;;
31680;SDS011;18281;51.364;9.566;2024-02-16T15:04:21;4.13;;;2.17;;
31680;SDS011;18281;51.364;9.566;2024-02-16T15:06:47;3.40;;;2.10;;
31680;SDS011;18281;51.364;9.566;2024-02-16T15:09:12;4.28;;;2.30;;
31680;SDS011;18281;51.364;9.566;2024-02-16T15:11:37;6.90;;;2.00;;
31680;SDS011;18281;51.364;9.566;2024-02-16T15:14:06;8.45;;;3.40;;